createdAt,value
2023-04-06T00:00:11.934Z,4.76
2023-04-06T00:05:13.639Z,4.72
2023-04-06T00:10:17.012Z,4.67
2023-04-06T00:15:18.742Z,4.52
2023-04-06T00:20:20.499Z,4.49
2023-04-06T00:25:22.242Z,4.55
2023-04-06T00:30:23.987Z,4.48
2023-04-06T00:35:25.714Z,4.47
2023-04-06T00:40:29.454Z,4.42
2023-04-06T00:45:31.287Z,4.38
2023-04-06T00:50:33.091Z,4.28
2023-04-06T00:55:36.974Z,4.25
2023-04-06T01:00:39.340Z,4.20
2023-04-06T01:05:43.571Z,4.23
2023-04-06T01:10:53.577Z,4.22
2023-04-06T01:16:01.567Z,4.20
2023-04-06T01:21:17.396Z,4.16
2023-04-06T01:26:46.630Z,4.15
2023-04-06T01:31:48.663Z,4.16
2023-04-06T01:36:51.306Z,4.13
2023-04-06T01:42:02.820Z,4.20
2023-04-06T01:47:06.604Z,4.07
2023-04-06T01:52:08.734Z,4.09
2023-04-06T01:57:13.949Z,4.05
2023-04-06T02:02:26.697Z,4.15
2023-04-06T02:07:35.362Z,3.95
2023-04-06T02:12:37.261Z,3.98
2023-04-06T02:17:42.177Z,3.92
2023-04-06T02:22:45.532Z,3.84
2023-04-06T02:27:47.202Z,3.86
2023-04-06T02:32:49.039Z,3.84
2023-04-06T02:37:51.389Z,3.70
2023-04-06T02:42:53.098Z,3.69
2023-04-06T02:48:02.919Z,3.60
2023-04-06T02:53:07.357Z,3.56
2023-04-06T02:58:10.869Z,3.40
2023-04-06T03:03:23.162Z,3.60
2023-04-06T03:08:25.751Z,3.50
2023-04-06T03:13:27.512Z,3.37
2023-04-06T03:18:33.068Z,3.24
2023-04-06T03:23:34.857Z,3.21
2023-04-06T03:28:37.796Z,3.30
2023-04-06T03:33:41.828Z,3.16
2023-04-06T03:38:48.166Z,3.17
2023-04-06T03:43:50.916Z,3.13
2023-04-06T03:48:53.258Z,3.09
2023-04-06T03:53:57.127Z,3.09
2023-04-06T03:58:58.925Z,3.05
2023-04-06T04:04:01.220Z,3.01
2023-04-06T04:09:03.493Z,2.96
2023-04-06T04:14:05.282Z,2.95
2023-04-06T04:19:07.393Z,2.98
2023-04-06T04:24:09.228Z,2.82
2023-04-06T04:29:12.292Z,2.84
2023-04-06T04:34:15.983Z,3.05
2023-04-06T04:39:17.760Z,2.90
2023-04-06T04:44:24.885Z,2.86
2023-04-06T04:49:27.518Z,2.75
2023-04-06T04:54:30.714Z,2.72
2023-04-06T04:59:35.739Z,2.80
2023-04-06T05:04:46.457Z,2.83
2023-04-06T05:09:54.409Z,3.01
2023-04-06T05:15:00.469Z,3.14
2023-04-06T05:20:03.183Z,3.33
2023-04-06T05:25:09.999Z,3.47
2023-04-06T05:30:13.359Z,3.68
2023-04-06T05:35:19.480Z,3.68
2023-04-06T05:40:26.186Z,3.85
2023-04-06T05:45:28.515Z,4.10
2023-04-06T05:50:32.032Z,4.09
2023-04-06T05:55:34.316Z,4.29
2023-04-06T06:00:50.634Z,4.53
2023-04-06T06:06:00.805Z,4.53
2023-04-06T06:11:07.610Z,4.48
2023-04-06T06:16:09.626Z,4.61
2023-04-06T06:21:18.159Z,4.75
2023-04-06T06:26:20.637Z,4.84
2023-04-06T06:31:23.634Z,4.83
2023-04-06T06:36:26.696Z,5.18
2023-04-06T06:41:28.486Z,5.28
2023-04-06T06:46:30.611Z,5.33
2023-04-06T06:51:32.407Z,5.55
2023-04-06T06:56:34.176Z,5.63
2023-04-06T07:01:37.605Z,5.84
2023-04-06T07:06:39.765Z,5.88
2023-04-06T07:11:42.425Z,6.03
2023-04-06T07:16:46.177Z,6.01
2023-04-06T07:21:50.127Z,6.26
2023-04-06T07:26:51.854Z,6.53
2023-04-06T07:31:54.092Z,6.49
2023-04-06T07:36:57.653Z,6.64
2023-04-06T07:41:59.718Z,6.65
2023-04-06T07:47:02.033Z,6.82
2023-04-06T07:52:04.192Z,6.93
2023-04-06T07:57:07.497Z,7.21
2023-04-06T08:02:09.241Z,7.18
2023-04-06T08:07:10.946Z,7.42
2023-04-06T08:12:12.688Z,7.21
2023-04-06T08:17:14.416Z,7.49
2023-04-06T08:22:16.126Z,7.48
2023-04-06T08:27:18.218Z,7.76
2023-04-06T08:32:20.007Z,7.78
2023-04-06T08:37:22.331Z,7.92
2023-04-06T08:42:27.209Z,8.01
2023-04-06T08:47:29.149Z,7.89
2023-04-06T08:52:32.873Z,7.86
2023-04-06T08:57:36.677Z,7.86
2023-04-06T09:02:43.863Z,7.94
2023-04-06T09:07:46.273Z,8.37
2023-04-06T09:12:47.971Z,8.43
2023-04-06T09:17:49.864Z,8.49
2023-04-06T09:22:51.680Z,8.44
2023-04-06T09:28:01.416Z,8.23
2023-04-06T09:33:03.428Z,8.24
2023-04-06T09:38:11.987Z,8.48
2023-04-06T09:43:13.803Z,8.60
2023-04-06T09:48:16.202Z,8.67
2023-04-06T09:53:21.432Z,8.89
2023-04-06T09:58:27.240Z,9.09
2023-04-06T10:04:06.959Z,9.21
2023-04-06T10:09:09.527Z,9.19
2023-04-06T10:14:12.811Z,9.24
2023-04-06T10:19:21.932Z,9.37
2023-04-06T10:24:23.677Z,9.50
2023-04-06T10:29:25.425Z,9.74
2023-04-06T10:34:36.260Z,9.88
2023-04-06T10:39:47.135Z,10.16
2023-04-06T10:44:50.981Z,9.82
2023-04-06T10:49:52.761Z,9.67
2023-04-06T10:54:55.781Z,9.75
2023-04-06T10:59:57.467Z,10.00
2023-04-06T11:04:59.908Z,10.22
2023-04-06T11:10:15.066Z,9.76
2023-04-06T11:15:19.566Z,9.53
2023-04-06T11:20:21.413Z,9.69
2023-04-06T11:25:23.089Z,9.62
2023-04-06T11:30:24.873Z,9.59
2023-04-06T11:35:26.617Z,9.50
2023-04-06T11:40:30.416Z,9.45
2023-04-06T11:45:44.130Z,9.68
2023-04-06T11:50:48.545Z,9.65
2023-04-06T11:55:50.411Z,9.77
2023-04-06T12:00:52.156Z,9.76
2023-04-06T12:05:53.849Z,9.98
2023-04-06T12:10:55.545Z,10.24
2023-04-06T12:15:57.276Z,10.57
2023-04-06T12:20:58.977Z,10.53
2023-04-06T12:26:00.764Z,10.45
2023-04-06T12:31:02.593Z,10.40
2023-04-06T12:36:04.387Z,10.44
2023-04-06T12:41:06.116Z,10.39
2023-04-06T12:46:07.850Z,10.24
2023-04-06T12:51:09.572Z,10.15
2023-04-06T12:56:16.697Z,10.20
2023-04-06T13:01:18.764Z,10.27
2023-04-06T13:06:20.722Z,10.44
2023-04-06T13:11:26.905Z,10.51
2023-04-06T13:16:28.976Z,10.00
2023-04-06T13:21:31.532Z,10.01
2023-04-06T13:26:33.247Z,10.27
2023-04-06T13:31:34.938Z,10.18
2023-04-06T13:36:36.709Z,10.05
2023-04-06T13:41:38.476Z,10.03
2023-04-06T13:46:40.800Z,10.05
2023-04-06T13:51:43.118Z,10.06
2023-04-06T13:56:44.832Z,10.08
2023-04-06T14:01:46.685Z,10.12
2023-04-06T14:06:48.457Z,10.03
2023-04-06T14:11:51.051Z,9.97
2023-04-06T14:16:53.218Z,10.04
2023-04-06T14:21:55.529Z,10.08
2023-04-06T14:26:57.854Z,10.04
2023-04-06T14:32:01.159Z,9.98
2023-04-06T14:37:02.884Z,9.95
2023-04-06T14:42:04.669Z,9.82
2023-04-06T14:47:06.667Z,9.88
2023-04-06T14:52:08.484Z,9.86
2023-04-06T14:57:10.717Z,9.87
2023-04-06T15:02:12.402Z,9.93
2023-04-06T15:07:14.291Z,9.85
2023-04-06T15:12:15.905Z,9.85
2023-04-06T15:17:17.718Z,9.78
2023-04-06T15:22:19.312Z,9.89
2023-04-06T15:27:21.834Z,9.81
2023-04-06T15:32:23.917Z,9.90
2023-04-06T15:37:25.707Z,9.78
2023-04-06T15:42:27.422Z,9.81
2023-04-06T15:47:29.047Z,9.85
2023-04-06T15:52:30.819Z,9.86
2023-04-06T15:57:32.562Z,9.84
2023-04-06T16:02:34.398Z,9.84
2023-04-06T16:07:36.279Z,9.85
2023-04-06T16:12:38.291Z,9.77
2023-04-06T16:17:41.939Z,9.76
2023-04-06T16:22:43.641Z,9.77
2023-04-06T16:27:46.008Z,9.72
2023-04-06T16:32:51.682Z,9.73
2023-04-06T16:37:53.377Z,9.63
2023-04-06T16:42:55.455Z,9.66
2023-04-06T16:47:57.188Z,9.64
2023-04-06T16:52:58.985Z,9.64
2023-04-06T16:58:00.646Z,9.63
2023-04-06T17:03:02.932Z,9.54
2023-04-06T17:08:04.815Z,9.56
2023-04-06T17:13:06.840Z,9.53
2023-04-06T17:18:08.697Z,9.45
2023-04-06T17:23:10.365Z,9.46
2023-04-06T17:28:12.046Z,9.46
2023-04-06T17:33:13.758Z,9.42
2023-04-06T17:38:15.542Z,9.32
2023-04-06T17:43:17.164Z,9.23
2023-04-06T17:48:23.121Z,9.22
2023-04-06T17:53:30.532Z,9.16
2023-04-06T17:58:32.359Z,9.08
2023-04-06T18:03:34.333Z,9.03
2023-04-06T18:08:36.114Z,8.94
2023-04-06T18:13:39.436Z,8.81
2023-04-06T18:18:42.200Z,8.82
2023-04-06T18:23:43.972Z,8.83
2023-04-06T18:28:46.681Z,8.72
2023-04-06T18:33:48.403Z,8.65
2023-04-06T18:38:50.194Z,8.59
2023-04-06T18:43:52.117Z,8.49
2023-04-06T18:48:53.887Z,8.49
2023-04-06T18:53:56.355Z,8.46
2023-04-06T18:58:58.319Z,8.42
2023-04-06T19:04:00.849Z,8.26
2023-04-06T19:09:04.883Z,8.15
2023-04-06T19:14:06.603Z,8.15
2023-04-06T19:19:08.419Z,8.19
2023-04-06T19:24:12.116Z,8.02
2023-04-06T19:29:13.855Z,8.14
2023-04-06T19:34:17.688Z,8.03
2023-04-06T19:39:19.549Z,8.00
2023-04-06T19:44:21.324Z,7.93
2023-04-06T19:49:23.383Z,7.74
2023-04-06T19:54:26.542Z,7.53
2023-04-06T19:59:28.540Z,7.45
2023-04-06T20:04:30.444Z,7.31
2023-04-06T20:09:32.229Z,7.13
2023-04-06T20:14:34.292Z,7.02
2023-04-06T20:19:36.025Z,6.92
2023-04-06T20:24:37.615Z,6.82
2023-04-06T20:29:40.318Z,6.66
2023-04-06T20:34:41.928Z,6.69
2023-04-06T20:39:43.602Z,6.78
2023-04-06T20:44:45.388Z,6.60
2023-04-06T20:49:47.045Z,6.61
2023-04-06T20:54:50.607Z,6.50
2023-04-06T20:59:52.289Z,6.42
2023-04-06T21:04:53.958Z,6.34
2023-04-06T21:09:56.459Z,6.31
2023-04-06T21:14:58.058Z,6.18
2023-04-06T21:19:59.723Z,6.17
2023-04-06T21:25:01.408Z,6.10
2023-04-06T21:30:03.751Z,6.11
2023-04-06T21:35:05.818Z,5.99
2023-04-06T21:40:08.165Z,5.88
2023-04-06T21:45:10.217Z,5.85
2023-04-06T21:50:11.885Z,5.78
2023-04-06T21:55:13.510Z,5.78
2023-04-06T22:00:16.405Z,5.68
2023-04-06T22:05:18.303Z,5.70
2023-04-06T22:10:20.088Z,5.61
2023-04-06T22:15:21.823Z,5.58
2023-04-06T22:20:23.428Z,5.54
2023-04-06T22:25:25.041Z,5.55
2023-04-06T22:30:26.664Z,5.48
2023-04-06T22:35:28.267Z,5.46
2023-04-06T22:40:29.959Z,5.41
2023-04-06T22:45:31.825Z,5.32
2023-04-06T22:50:33.549Z,5.36
2023-04-06T22:55:35.359Z,5.30
2023-04-06T23:00:36.952Z,5.22
2023-04-06T23:05:38.681Z,5.22
2023-04-06T23:10:42.064Z,5.21
2023-04-06T23:15:43.972Z,5.15
2023-04-06T23:20:45.954Z,5.15
2023-04-06T23:25:47.624Z,5.17
2023-04-06T23:30:49.212Z,5.00
2023-04-06T23:35:52.179Z,5.03
2023-04-06T23:40:54.210Z,4.94
2023-04-06T23:45:56.042Z,4.81
2023-04-06T23:50:57.680Z,4.85
2023-04-06T23:55:59.305Z,4.87
